Time;durP1;ratioP1;P1;durP2;ratioP2;P2;SDS_P1;SDS_P2;PMS_P1;PMS_P2;Temp;Humidity;BMP_temperature;BMP_pressure;BME280_temperature;BME280_humidity;BME280_pressure;Samples;Min_cycle;Max_cycle;Signal;HPM_P1;HPM_P2
2023/06/18 00:01:07;;;;;;;13.10;9.52;;;18.50;1.00;;;;;;7383307;19;20122;-70
2023/06/18 00:03:37;;;;;;;10.70;8.77;;;18.50;1.00;;;;;;7384384;19;20014;-70
2023/06/18 00:06:09;;;;;;;13.73;9.88;;;18.50;1.00;;;;;;7384438;19;20025;-70
2023/06/18 00:08:39;;;;;;;11.55;9.77;;;18.60;1.00;;;;;;7385885;19;20042;-69
2023/06/18 00:11:09;;;;;;;11.98;8.88;;;18.60;1.00;;;;;;7382994;19;20780;-70
2023/06/18 00:13:39;;;;;;;13.20;9.07;;;18.50;1.00;;;;;;7383994;19;20048;-70
2023/06/18 00:16:09;;;;;;;9.63;7.97;;;18.50;1.00;;;;;;7386048;19;20018;-70
2023/06/18 00:18:39;;;;;;;10.05;8.73;;;18.80;1.00;;;;;;7388428;19;20021;-70
2023/06/18 00:21:13;;;;;;;12.20;9.05;;;18.90;1.00;;;;;;7383026;19;20018;-70
2023/06/18 00:23:43;;;;;;;14.05;8.40;;;19.00;1.00;;;;;;7383803;19;20021;-69
2023/06/18 00:26:12;;;;;;;12.63;8.70;;;19.00;1.00;;;;;;7384433;19;20485;-70
2023/06/18 00:28:42;;;;;;;14.23;9.40;;;19.00;1.00;;;;;;7383031;19;20014;-70
2023/06/18 00:31:13;;;;;;;11.77;9.43;;;18.90;1.00;;;;;;7382502;19;20030;-70
2023/06/18 00:33:43;;;;;;;10.05;8.65;;;18.80;1.00;;;;;;7383434;19;20014;-70
2023/06/18 00:36:19;;;;;;;9.20;8.05;;;18.70;1.00;;;;;;7382349;19;20021;-70
2023/06/18 00:38:51;;;;;;;11.05;9.00;;;18.60;1.00;;;;;;7383564;19;20015;-70
2023/06/18 00:41:24;;;;;;;12.75;8.40;;;18.30;1.00;;;;;;7382201;19;20014;-70
2023/06/18 00:43:53;;;;;;;11.85;8.75;;;18.00;1.00;;;;;;7383163;19;20014;-70
2023/06/18 00:46:24;;;;;;;11.82;8.38;;;17.90;1.00;;;;;;7383329;19;20031;-70
2023/06/18 00:48:55;;;;;;;18.77;8.52;;;17.80;1.00;;;;;;7381483;19;20478;-70
2023/06/18 00:51:29;;;;;;;9.63;8.68;;;17.80;1.00;;;;;;7381830;19;20015;-70
2023/06/18 00:53:59;;;;;;;10.23;8.95;;;17.70;1.00;;;;;;7382966;19;20022;-69
2023/06/18 00:56:30;;;;;;;12.27;8.52;;;17.60;1.00;;;;;;7381343;19;20016;-69
2023/06/18 00:59:00;;;;;;;12.38;8.70;;;17.60;1.00;;;;;;7380900;19;20019;-69
2023/06/18 01:01:30;;;;;;;11.00;8.43;;;17.60;1.00;;;;;;7380103;19;20022;-69
2023/06/18 01:04:01;;;;;;;10.80;8.60;;;17.50;1.00;;;;;;7383029;19;20010;-69
2023/06/18 01:06:34;;;;;;;11.82;8.45;;;17.50;1.00;;;;;;7383705;19;20528;-69
2023/06/18 01:09:05;;;;;;;10.93;9.02;;;17.50;1.00;;;;;;7385547;19;20024;-70
2023/06/18 01:11:40;;;;;;;12.57;9.15;;;17.40;1.00;;;;;;7384058;19;20501;-70
2023/06/18 01:14:11;;;;;;;10.82;8.98;;;17.40;1.00;;;;;;7386373;19;20015;-70
2023/06/18 01:16:46;;;;;;;9.25;8.25;;;17.30;1.00;;;;;;7382361;19;20471;-69
2023/06/18 01:19:35;;;;;;;10.52;8.20;;;17.30;1.00;;;;;;7382968;19;20031;-70
2023/06/18 01:22:16;;;;;;;13.77;9.30;;;17.30;1.00;;;;;;7382936;19;20526;-70
2023/06/18 01:24:52;;;;;;;12.15;8.60;;;17.50;1.00;;;;;;7382193;19;20018;-70
2023/06/18 01:27:24;;;;;;;12.50;8.55;;;17.50;1.00;;;;;;7382789;19;20077;-70
2023/06/18 01:29:54;;;;;;;12.18;8.95;;;17.50;1.00;;;;;;7384430;19;20015;-70
2023/06/18 01:32:24;;;;;;;10.07;8.38;;;17.50;1.00;;;;;;7382422;19;20122;-70
2023/06/18 01:34:55;;;;;;;11.80;8.95;;;17.60;1.00;;;;;;7381927;19;20483;-70
2023/06/18 01:37:36;;;;;;;13.77;8.63;;;17.70;1.00;;;;;;7382683;19;20521;-70
2023/06/18 01:40:19;;;;;;;10.38;8.50;;;17.70;1.00;;;;;;7381499;19;20082;-70
2023/06/18 01:42:55;;;;;;;11.60;8.52;;;17.70;1.00;;;;;;7382371;19;20018;-70
2023/06/18 01:45:29;;;;;;;10.18;8.55;;;17.70;1.00;;;;;;7381792;19;20033;-70
2023/06/18 01:48:02;;;;;;;;;;;17.60;1.00;;;;;;7383160;19;20022;-70
2023/06/18 01:50:35;;;;;;;13.00;8.80;;;17.60;1.00;;;;;;7380563;19;19915;-70
2023/06/18 01:53:09;;;;;;;11.45;8.25;;;17.50;1.00;;;;;;7382381;19;20019;-70
2023/06/18 01:55:40;;;;;;;14.95;9.43;;;17.60;1.00;;;;;;7380884;19;20015;-70
2023/06/18 01:58:10;;;;;;;14.75;8.77;;;17.60;1.00;;;;;;7382020;19;20032;-70
2023/06/18 02:00:40;;;;;;;10.82;8.68;;;17.60;1.00;;;;;;7380084;19;20015;-70
2023/06/18 02:03:10;;;;;;;12.30;9.15;;;17.60;1.00;;;;;;7381919;19;20093;-70
2023/06/18 02:05:40;;;;;;;9.95;8.15;;;17.60;1.00;;;;;;7381676;19;20014;-70
2023/06/18 02:08:13;;;;;;;13.85;9.27;;;17.50;1.00;;;;;;7381425;19;20022;-69
2023/06/18 02:10:43;;;;;;;10.75;9.30;;;17.60;1.00;;;;;;7386194;19;20138;-70
2023/06/18 02:13:13;;;;;;;11.60;8.50;;;17.60;1.00;;;;;;7387471;19;20121;-70
2023/06/18 02:15:44;;;;;;;11.90;8.75;;;17.50;1.00;;;;;;7391046;19;20028;-70
2023/06/18 02:18:14;;;;;;;10.55;9.07;;;17.60;1.00;;;;;;7393017;19;20016;-70
2023/06/18 02:20:45;;;;;;;14.48;8.50;;;17.40;1.00;;;;;;7386842;19;20026;-70
2023/06/18 02:23:18;;;;;;;11.18;9.25;;;17.40;1.00;;;;;;7388740;19;20523;-70
2023/06/18 02:25:48;;;;;;;14.88;8.55;;;17.50;1.00;;;;;;7388262;19;20663;-70
2023/06/18 02:28:18;;;;;;;11.25;8.20;;;17.50;1.00;;;;;;7388344;19;20129;-70
2023/06/18 02:30:47;;;;;;;13.00;8.55;;;17.60;1.00;;;;;;7390682;19;20022;-70
2023/06/18 02:33:18;;;;;;;13.15;9.15;;;17.40;1.00;;;;;;7388554;19;20022;-70
2023/06/18 02:35:48;;;;;;;11.43;8.40;;;17.20;1.00;;;;;;7387302;19;20039;-69
2023/06/18 02:38:21;;;;;;;11.27;8.43;;;17.10;1.00;;;;;;7387856;19;20014;-69
2023/06/18 02:40:51;;;;;;;12.00;7.90;;;17.20;1.00;;;;;;7384823;19;20019;-69
2023/06/18 02:43:21;;;;;;;11.93;8.23;;;17.20;1.00;;;;;;7388329;19;20038;-69
2023/06/18 02:45:52;;;;;;;10.15;8.48;;;17.10;1.00;;;;;;7387781;19;20018;-70
2023/06/18 02:48:22;;;;;;;10.60;8.70;;;17.20;1.00;;;;;;7386556;19;20018;-70
2023/06/18 02:50:52;;;;;;;13.75;9.02;;;17.20;1.00;;;;;;7385891;19;20358;-70
2023/06/18 02:53:25;;;;;;;11.02;8.45;;;17.20;1.00;;;;;;7387902;19;20011;-70
2023/06/18 02:55:55;;;;;;;11.88;8.32;;;17.20;1.00;;;;;;7387556;19;20490;-70
2023/06/18 02:58:28;;;;;;;11.65;8.73;;;17.20;1.00;;;;;;7387504;19;20502;-70
2023/06/18 03:00:59;;;;;;;12.33;8.27;;;17.20;1.00;;;;;;7385411;19;20026;-70
2023/06/18 03:03:29;;;;;;;10.38;8.23;;;17.20;1.00;;;;;;7387121;19;20083;-70
2023/06/18 03:06:00;;;;;;;9.65;8.30;;;17.10;1.00;;;;;;7389746;19;20748;-71
2023/06/18 03:08:32;;;;;;;12.10;8.98;;;17.00;1.00;;;;;;7388669;19;20027;-70
2023/06/18 03:11:02;;;;;;;11.50;8.65;;;16.90;1.00;;;;;;7383523;19;20018;-69
2023/06/18 03:13:32;;;;;;;12.80;8.70;;;16.90;1.00;;;;;;7386357;19;20377;-70
2023/06/18 03:16:02;;;;;;;11.10;8.10;;;17.00;1.00;;;;;;7389799;19;20089;-70
2023/06/18 03:18:32;;;;;;;12.32;8.13;;;17.00;1.00;;;;;;7391617;19;20511;-70
2023/06/18 03:21:02;;;;;;;9.38;8.18;;;17.10;1.00;;;;;;7383319;19;20029;-70
2023/06/18 03:23:38;;;;;;;12.07;8.40;;;17.00;1.00;;;;;;7382296;19;20022;-70
2023/06/18 03:26:08;;;;;;;10.00;8.23;;;17.10;1.00;;;;;;7386669;19;20025;-70
2023/06/18 03:28:38;;;;;;;11.95;8.80;;;17.00;1.00;;;;;;7386539;19;20011;-70
2023/06/18 03:31:09;;;;;;;13.85;8.23;;;17.00;1.00;;;;;;7385005;19;20011;-69
2023/06/18 03:33:39;;;;;;;9.55;8.10;;;17.00;1.00;;;;;;7386439;19;20038;-69
2023/06/18 03:36:09;;;;;;;13.95;9.23;;;17.10;1.00;;;;;;7386303;19;20018;-70
2023/06/18 03:38:41;;;;;;;10.02;8.30;;;17.30;1.00;;;;;;7386043;19;20019;-69
2023/06/18 03:41:11;;;;;;;10.63;8.60;;;17.20;1.00;;;;;;7383980;19;20022;-70
2023/06/18 03:43:41;;;;;;;9.85;8.05;;;17.50;1.00;;;;;;7385600;19;20022;-70
2023/06/18 03:46:12;;;;;;;12.43;8.20;;;17.80;1.00;;;;;;7385767;19;20035;-70
2023/06/18 03:48:43;;;;;;;10.77;8.27;;;17.70;1.00;;;;;;7385749;19;20011;-70
2023/06/18 03:51:13;;;;;;;10.55;8.15;;;17.70;1.00;;;;;;7383515;19;20604;-70
2023/06/18 03:53:45;;;;;;;11.30;8.90;;;18.00;1.00;;;;;;7386044;19;20018;-69
2023/06/18 03:56:16;;;;;;;11.55;8.38;;;18.30;1.00;;;;;;7385426;19;20375;-70
2023/06/18 03:58:48;;;;;;;11.45;7.80;;;18.60;1.00;;;;;;7383282;19;20471;-69
2023/06/18 04:01:18;;;;;;;13.68;8.32;;;18.70;1.00;;;;;;7387064;19;20021;-70
2023/06/18 04:03:48;;;;;;;9.85;8.07;;;18.80;1.00;;;;;;7388750;19;20038;-69
2023/06/18 04:06:18;;;;;;;11.25;7.93;;;19.60;1.00;;;;;;7385216;19;20086;-70
2023/06/18 04:08:51;;;;;;;10.05;8.30;;;19.40;1.00;;;;;;7386777;19;20691;-70
2023/06/18 04:11:21;;;;;;;9.52;7.70;;;19.20;1.00;;;;;;7381370;19;20613;-70
2023/06/18 04:13:51;;;;;;;11.77;8.23;;;19.40;1.00;;;;;;7385022;19;20019;-70
2023/06/18 04:16:21;;;;;;;12.07;8.35;;;19.60;1.00;;;;;;7388745;19;20089;-70
2023/06/18 04:18:51;;;;;;;11.23;8.60;;;19.80;1.00;;;;;;7385485;19;20053;-70
2023/06/18 04:21:21;;;;;;;8.88;7.68;;;19.80;1.00;;;;;;7383459;19;20518;-69
2023/06/18 04:23:54;;;;;;;12.95;8.65;;;20.20;1.00;;;;;;7384672;19;20022;-70
2023/06/18 04:26:25;;;;;;;10.90;7.90;;;20.10;1.00;;;;;;7384296;19;20018;-70
2023/06/18 04:28:55;;;;;;;9.82;8.30;;;20.40;1.00;;;;;;7385050;19;20014;-69
2023/06/18 04:31:26;;;;;;;10.27;7.80;;;20.50;1.00;;;;;;7382482;19;20510;-70
2023/06/18 04:33:56;;;;;;;13.05;7.68;;;20.70;1.00;;;;;;7383403;19;20043;-70
2023/06/18 04:36:26;;;;;;;10.18;8.18;;;20.80;1.00;;;;;;7384114;19;20022;-69
2023/06/18 04:38:59;;;;;;;9.98;7.63;;;21.60;1.00;;;;;;7384435;19;20014;-69
2023/06/18 04:41:29;;;;;;;8.98;7.35;;;21.60;1.00;;;;;;7380702;19;20022;-70
2023/06/18 04:43:58;;;;;;;9.60;7.80;;;21.60;1.00;;;;;;7383499;19;20027;-70
2023/06/18 04:46:28;;;;;;;9.75;7.55;;;22.40;1.00;;;;;;7384403;19;20121;-70
2023/06/18 04:48:59;;;;;;;10.85;7.57;;;22.40;1.00;;;;;;7383782;19;20057;-71
2023/06/18 04:51:29;;;;;;;8.13;6.53;;;23.10;1.00;;;;;;7380344;19;20096;-69
2023/06/18 04:54:03;;;;;;;8.70;6.95;;;22.70;1.00;;;;;;7382039;19;20035;-69
2023/06/18 04:56:33;;;;;;;9.18;7.10;;;22.50;1.00;;;;;;7384828;19;20014;-70
2023/06/18 04:59:03;;;;;;;9.82;7.25;;;22.50;1.00;;;;;;7385655;19;20023;-69
2023/06/18 05:01:33;;;;;;;10.82;7.72;;;22.80;1.00;;;;;;7381844;19;20015;-70
2023/06/18 05:04:02;;;;;;;11.57;7.22;;;23.10;1.00;;;;;;7383121;19;20355;-69
2023/06/18 05:06:32;;;;;;;10.07;6.95;;;23.50;1.00;;;;;;7383527;19;20524;-69
2023/06/18 05:09:05;;;;;;;8.20;7.22;;;23.10;1.00;;;;;;7386219;19;20022;-70
2023/06/18 05:11:35;;;;;;;7.60;6.70;;;22.90;1.00;;;;;;7383113;19;20483;-70
2023/06/18 05:14:05;;;;;;;9.18;7.03;;;22.10;1.00;;;;;;7382358;19;20018;-70
2023/06/18 05:16:35;;;;;;;8.38;7.22;;;22.00;1.00;;;;;;7383843;19;20431;-70
2023/06/18 05:19:06;;;;;;;8.80;7.20;;;21.40;1.00;;;;;;7379625;19;20025;-70
2023/06/18 05:21:36;;;;;;;9.27;7.40;;;21.50;1.00;;;;;;7382752;19;20121;-70
2023/06/18 05:24:09;;;;;;;9.27;6.43;;;21.30;1.00;;;;;;7382164;19;20043;-70
2023/06/18 05:26:39;;;;;;;8.38;6.45;;;20.90;1.00;;;;;;7381275;19;20196;-69
2023/06/18 05:29:09;;;;;;;10.45;6.85;;;20.80;1.00;;;;;;7383205;19;20014;-70
2023/06/18 05:31:39;;;;;;;7.13;6.38;;;21.10;1.00;;;;;;7382677;19;20389;-69
2023/06/18 05:34:09;;;;;;;8.90;7.10;;;21.20;1.00;;;;;;7382199;19;20050;-70
2023/06/18 05:36:39;;;;;;;9.10;6.95;;;21.40;1.00;;;;;;7382338;19;20057;-69
2023/06/18 05:39:11;;;;;;;8.93;6.80;;;21.00;1.00;;;;;;7380391;19;20031;-69
2023/06/18 05:41:41;;;;;;;7.60;6.65;;;21.80;1.00;;;;;;7382318;19;20363;-69
2023/06/18 05:44:11;;;;;;;7.78;6.80;;;21.60;1.00;;;;;;7381805;19;20021;-69
2023/06/18 05:46:41;;;;;;;7.68;6.82;;;21.90;1.00;;;;;;7380649;19;20048;-70
2023/06/18 05:49:11;;;;;;;8.63;7.07;;;22.10;1.00;;;;;;7381904;19;20011;-69
2023/06/18 05:51:41;;;;;;;7.57;6.47;;;21.90;1.00;;;;;;7382381;19;20018;-70
2023/06/18 05:54:14;;;;;;;9.88;7.40;;;21.60;1.00;;;;;;7385158;19;20019;-70
2023/06/18 05:56:44;;;;;;;9.60;7.35;;;21.60;1.00;;;;;;7386576;19;20085;-70
2023/06/18 05:59:14;;;;;;;8.00;7.15;;;22.00;1.00;;;;;;7380142;19;20021;-70
2023/06/18 06:01:44;;;;;;;7.72;6.93;;;21.60;1.00;;;;;;7381691;19;20017;-70
2023/06/18 06:04:14;;;;;;;11.43;7.63;;;21.90;1.00;;;;;;7381052;19;20015;-70
2023/06/18 06:06:44;;;;;;;8.82;6.88;;;21.00;1.00;;;;;;7381773;19;20705;-70
2023/06/18 06:09:16;;;;;;;8.93;6.70;;;21.20;1.00;;;;;;7383505;19;20026;-69
2023/06/18 06:11:46;;;;;;;9.77;7.22;;;20.90;1.00;;;;;;7381277;19;20542;-70
2023/06/18 06:14:16;;;;;;;11.57;7.47;;;21.20;1.00;;;;;;7380761;19;20499;-70
2023/06/18 06:16:47;;;;;;;9.68;7.25;;;21.60;1.00;;;;;;7382034;19;20026;-70
2023/06/18 06:19:17;;;;;;;7.85;7.03;;;21.50;1.00;;;;;;7379786;19;20408;-69
2023/06/18 06:21:47;;;;;;;8.70;6.55;;;21.40;1.00;;;;;;7379531;19;20025;-69
2023/06/18 06:24:20;;;;;;;7.55;6.65;;;21.50;1.00;;;;;;7380111;19;20018;-69
2023/06/18 06:26:50;;;;;;;7.63;6.50;;;21.60;1.00;;;;;;7381064;19;20015;-69
2023/06/18 06:29:20;;;;;;;9.27;6.80;;;21.70;1.00;;;;;;7381537;19;20007;-69
2023/06/18 06:31:50;;;;;;;10.00;6.28;;;21.60;1.00;;;;;;7380799;19;20482;-69
2023/06/18 06:34:21;;;;;;;9.48;7.07;;;22.50;1.00;;;;;;7380588;19;20021;-69
2023/06/18 06:36:51;;;;;;;7.85;6.85;;;22.70;1.00;;;;;;7380954;19;20014;-70
2023/06/18 06:39:23;;;;;;;8.82;6.97;;;22.90;1.00;;;;;;7378840;19;20015;-70
2023/06/18 06:41:53;;;;;;;8.30;6.85;;;23.30;1.00;;;;;;7380599;19;20039;-70
2023/06/18 06:44:23;;;;;;;11.85;6.97;;;22.90;1.00;;;;;;7380000;19;20639;-70
2023/06/18 06:46:53;;;;;;;7.18;6.47;;;22.60;1.00;;;;;;7380381;19;20507;-71
2023/06/18 06:49:23;;;;;;;7.65;6.78;;;22.60;1.00;;;;;;7381033;19;20011;-71
2023/06/18 06:51:56;;;;;;;8.65;6.65;;;22.40;1.00;;;;;;7384320;19;20049;-70
2023/06/18 06:54:29;;;;;;;12.73;7.18;;;22.50;1.00;;;;;;7379581;19;20011;-71
2023/06/18 06:57:00;;;;;;;9.40;6.85;;;23.30;1.00;;;;;;7380189;19;20026;-69
2023/06/18 06:59:30;;;;;;;8.68;6.88;;;23.50;1.00;;;;;;7385317;19;20509;-70
2023/06/18 07:02:00;;;;;;;9.35;6.85;;;23.90;1.00;;;;;;7387376;19;20113;-70
2023/06/18 07:04:30;;;;;;;7.68;6.50;;;23.50;1.00;;;;;;7386338;19;20535;-70
2023/06/18 07:07:01;;;;;;;7.95;6.85;;;23.30;1.00;;;;;;7387070;19;20422;-70
2023/06/18 07:09:34;;;;;;;7.30;5.90;;;23.50;1.00;;;;;;7389370;19;20019;-70
2023/06/18 07:12:04;;;;;;;7.05;5.93;;;23.90;1.00;;;;;;7386962;19;20026;-70
2023/06/18 07:14:34;;;;;;;8.13;5.97;;;23.90;1.00;;;;;;7387014;19;20436;-70
2023/06/18 07:17:05;;;;;;;9.55;6.20;;;24.20;1.00;;;;;;7388565;19;20031;-70
2023/06/18 07:19:35;;;;;;;7.32;6.25;;;24.10;1.00;;;;;;7385125;19;20018;-70
2023/06/18 07:22:05;;;;;;;7.75;6.53;;;24.50;1.00;;;;;;7387082;19;20025;-70
2023/06/18 07:24:38;;;;;;;8.07;6.32;;;24.20;1.00;;;;;;7385766;19;20522;-70
2023/06/18 07:27:08;;;;;;;8.55;5.78;;;24.20;1.00;;;;;;7386350;19;20019;-69
2023/06/18 07:29:38;;;;;;;7.65;5.97;;;24.50;1.00;;;;;;7387146;19;20484;-70
2023/06/18 07:32:08;;;;;;;8.77;6.25;;;24.40;1.00;;;;;;7385848;19;20645;-70
2023/06/18 07:34:38;;;;;;;10.73;6.32;;;24.40;1.00;;;;;;7383774;19;20392;-70
2023/06/18 07:37:08;;;;;;;18.13;7.20;;;24.80;1.00;;;;;;7385961;19;20377;-70
2023/06/18 07:39:41;;;;;;;9.18;6.25;;;25.00;1.00;;;;;;7384043;19;20115;-70
2023/06/18 07:42:11;;;;;;;8.25;6.25;;;24.90;1.00;;;;;;7386148;19;20482;-70
2023/06/18 07:44:41;;;;;;;8.73;5.78;;;24.90;1.00;;;;;;7385443;19;20019;-70
2023/06/18 07:47:11;;;;;;;10.73;6.40;;;24.90;1.00;;;;;;7390194;19;20015;-70
2023/06/18 07:49:41;;;;;;;6.97;5.78;;;25.10;1.00;;;;;;7384273;19;20019;-70
2023/06/18 07:52:11;;;;;;;13.10;6.25;;;25.10;1.00;;;;;;7385132;19;20043;-70
2023/06/18 07:54:43;;;;;;;9.52;6.03;;;25.40;1.00;;;;;;7383698;19;20015;-70
2023/06/18 07:57:13;;;;;;;7.22;5.88;;;25.30;1.00;;;;;;7384153;19;20025;-70
2023/06/18 07:59:43;;;;;;;6.72;5.55;;;25.40;1.00;;;;;;7383227;19;20617;-70
2023/06/18 08:02:14;;;;;;;8.02;6.00;;;25.70;1.00;;;;;;7383768;19;20019;-70
2023/06/18 08:04:43;;;;;;;7.78;6.00;;;25.70;1.00;;;;;;7384627;19;20613;-70
2023/06/18 08:07:13;;;;;;;6.45;5.68;;;25.50;1.00;;;;;;7384994;19;20401;-70
2023/06/18 08:09:46;;;;;;;9.75;5.85;;;25.20;1.00;;;;;;7386486;19;20035;-70
2023/06/18 08:12:16;;;;;;;7.25;5.65;;;25.30;1.00;;;;;;7384895;19;20095;-70
2023/06/18 08:14:47;;;;;;;8.75;5.68;;;25.80;1.00;;;;;;7384704;19;20483;-71
2023/06/18 08:17:18;;;;;;;8.38;6.38;;;25.80;1.00;;;;;;7386502;19;20018;-70
2023/06/18 08:19:49;;;;;;;12.75;5.97;;;25.50;1.00;;;;;;7382732;19;20407;-70
2023/06/18 08:22:20;;;;;;;8.77;6.18;;;26.10;1.00;;;;;;7384793;19;20011;-70
2023/06/18 08:24:52;;;;;;;7.18;6.18;;;26.00;1.00;;;;;;7383933;19;20021;-71
2023/06/18 08:27:22;;;;;;;7.35;5.55;;;26.30;1.00;;;;;;7384270;19;20035;-70
2023/06/18 08:29:52;;;;;;;8.35;5.35;;;26.30;1.00;;;;;;7383473;19;20441;-71
2023/06/18 08:32:22;;;;;;;10.52;6.43;;;26.10;1.00;;;;;;7384536;19;20039;-71
2023/06/18 08:34:52;;;;;;;9.85;6.15;;;26.30;1.00;;;;;;7383757;19;20385;-70
2023/06/18 08:37:23;;;;;;;7.25;5.50;;;26.40;1.00;;;;;;7383954;19;20039;-71
2023/06/18 08:39:55;;;;;;;7.55;6.28;;;26.50;1.00;;;;;;7382385;19;20074;-71
2023/06/18 08:42:25;;;;;;;9.18;5.70;;;26.70;1.00;;;;;;7385585;19;20018;-70
2023/06/18 08:44:55;;;;;;;6.75;6.07;;;27.10;1.00;;;;;;7386594;19;20014;-71
2023/06/18 08:47:25;;;;;;;6.00;5.40;;;27.20;1.00;;;;;;7383284;19;20036;-71
2023/06/18 08:49:59;;;;;;;6.32;5.55;;;27.50;1.00;;;;;;7382188;19;20042;-70
2023/06/18 08:52:31;;;;;;;9.88;5.53;;;27.50;1.00;;;;;;7383453;19;20608;-70
2023/06/18 08:55:07;;;;;;;5.93;5.32;;;27.50;1.00;;;;;;7382963;19;20035;-70
2023/06/18 08:57:43;;;;;;;6.85;6.15;;;27.60;1.00;;;;;;7382748;19;20017;-70
2023/06/18 09:00:14;;;;;;;9.40;5.70;;;27.70;1.00;;;;;;7381918;19;20044;-70
2023/06/18 09:02:44;;;;;;;10.48;6.28;;;27.80;1.00;;;;;;7381606;19;20039;-70
2023/06/18 09:05:15;;;;;;;7.20;5.65;;;27.30;1.00;;;;;;7382125;19;20039;-71
2023/06/18 09:07:46;;;;;;;7.75;6.05;;;27.80;1.00;;;;;;7382605;19;20014;-70
2023/06/18 09:10:19;;;;;;;6.75;5.53;;;28.10;1.00;;;;;;7386329;19;20014;-71
2023/06/18 09:12:50;;;;;;;7.32;5.50;;;28.10;1.00;;;;;;7382590;19;20028;-69
2023/06/18 09:15:20;;;;;;;8.65;5.95;;;28.00;1.00;;;;;;7384813;19;20426;-70
2023/06/18 09:17:52;;;;;;;6.70;5.47;;;27.80;1.00;;;;;;7385985;19;20151;-70
2023/06/18 09:20:23;;;;;;;5.80;5.05;;;27.50;1.00;;;;;;7378366;19;20093;-70
2023/06/18 09:22:53;;;;;;;5.43;4.93;;;27.60;1.00;;;;;;7382710;19;20044;-69
2023/06/18 09:25:26;;;;;;;5.95;5.35;;;28.10;1.00;;;;;;7381421;19;20010;-71
2023/06/18 09:28:00;;;;;;;6.13;5.22;;;28.50;1.00;;;;;;7381457;19;20015;-70
2023/06/18 09:30:30;;;;;;;7.35;5.43;;;28.50;1.00;;;;;;7384424;19;20018;-70
2023/06/18 09:33:00;;;;;;;6.88;5.35;;;27.60;1.00;;;;;;7382257;19;20092;-69
2023/06/18 09:35:32;;;;;;;5.85;5.15;;;27.90;1.00;;;;;;7381790;19;20092;-70
2023/06/18 09:38:11;;;;;;;9.45;5.05;;;28.10;1.00;;;;;;7383139;19;20006;-70
2023/06/18 09:40:44;;;;;;;7.30;5.22;;;28.20;1.00;;;;;;7383997;19;20508;-69
2023/06/18 09:43:13;;;;;;;5.80;4.55;;;28.40;1.00;;;;;;7381497;19;20086;-70
2023/06/18 09:45:44;;;;;;;6.50;5.60;;;28.10;1.00;;;;;;7381153;19;20023;-70
2023/06/18 09:48:14;;;;;;;7.82;4.93;;;28.40;1.00;;;;;;7381406;19;20487;-70
2023/06/18 09:50:48;;;;;;;6.05;5.18;;;28.70;1.00;;;;;;7380446;19;20031;-70
2023/06/18 09:53:20;;;;;;;8.05;4.95;;;28.70;1.00;;;;;;7381613;19;20021;-70
2023/06/18 09:55:52;;;;;;;5.70;4.82;;;28.90;1.00;;;;;;7380758;19;20508;-70
2023/06/18 09:58:41;;;;;;;6.43;5.28;;;28.70;1.00;;;;;;7381309;19;20018;-70
2023/06/18 10:01:11;;;;;;;5.70;4.57;;;28.80;1.00;;;;;;7378884;19;20019;-69
2023/06/18 10:03:41;;;;;;;5.22;4.60;;;28.90;1.00;;;;;;7380989;19;20025;-70
2023/06/18 10:06:18;;;;;;;6.75;4.63;;;28.80;1.00;;;;;;7378998;19;20669;-69
2023/06/18 10:08:50;;;;;;;4.97;4.53;;;29.10;1.00;;;;;;7383121;19;20053;-70
2023/06/18 10:11:24;;;;;;;5.13;4.60;;;28.60;1.00;;;;;;7379217;19;20018;-70
2023/06/18 10:13:57;;;;;;;9.27;4.97;;;28.80;1.00;;;;;;7380672;19;20053;-70
2023/06/18 10:16:31;;;;;;;5.40;4.35;;;29.10;1.00;;;;;;7381077;19;20044;-69
2023/06/18 10:19:05;;;;;;;6.85;4.63;;;29.30;1.00;;;;;;7381040;19;20019;-70
2023/06/18 10:21:39;;;;;;;4.97;4.30;;;29.30;1.00;;;;;;7379269;19;20018;-69
2023/06/18 10:24:14;;;;;;;7.97;4.47;;;29.40;1.00;;;;;;7380338;19;20018;-70
2023/06/18 10:26:49;;;;;;;6.05;4.47;;;29.20;1.00;;;;;;7380660;19;20024;-70
2023/06/18 10:29:19;;;;;;;5.65;4.40;;;29.20;1.00;;;;;;7381786;19;20102;-70
2023/06/18 10:31:49;;;;;;;4.68;4.05;;;29.10;1.00;;;;;;7382413;19;20052;-69
2023/06/18 10:34:20;;;;;;;5.45;4.70;;;28.70;1.00;;;;;;7388284;19;20568;-70
2023/06/18 10:36:50;;;;;;;6.93;4.47;;;28.50;1.00;;;;;;7391723;19;20037;-70
2023/06/18 10:39:20;;;;;;;7.15;4.32;;;28.40;1.00;;;;;;7387173;19;20486;-69
2023/06/18 10:41:57;;;;;;;4.75;4.25;;;28.90;1.00;;;;;;7385669;19;20018;-70
2023/06/18 10:44:51;;;;;;;6.13;4.53;;;28.40;1.00;;;;;;7386079;19;20022;-70
2023/06/18 10:47:22;;;;;;;5.07;4.57;;;28.90;1.00;;;;;;7385861;19;20504;-70
2023/06/18 10:50:11;;;;;;;4.85;4.28;;;28.90;1.00;;;;;;7386289;19;20025;-69
2023/06/18 10:52:43;;;;;;;8.63;5.45;;;28.60;1.00;;;;;;7387592;19;20111;-71
2023/06/18 10:55:15;;;;;;;5.60;4.78;;;28.60;1.00;;;;;;7387052;19;20073;-70
2023/06/18 10:57:49;;;;;;;4.95;4.38;;;28.80;1.00;;;;;;7387458;19;20064;-71
2023/06/18 11:00:21;;;;;;;4.88;4.38;;;29.00;1.00;;;;;;7385934;19;20106;-70
2023/06/18 11:02:59;;;;;;;5.80;4.82;;;28.90;1.00;;;;;;7386776;19;20613;-70
2023/06/18 11:05:45;;;;;;;7.57;4.80;;;29.20;1.00;;;;;;7385050;19;20022;-71
2023/06/18 11:08:17;;;;;;;5.22;4.72;;;29.30;1.00;;;;;;7387146;19;20018;-71
2023/06/18 11:10:50;;;;;;;7.40;4.78;;;29.30;1.00;;;;;;7384891;19;20018;-69
2023/06/18 11:13:31;;;;;;;5.85;4.93;;;28.80;1.00;;;;;;7386801;19;20024;-70
2023/06/18 11:16:14;;;;;;;6.25;4.78;;;29.20;1.00;;;;;;7390045;19;20015;-69
2023/06/18 11:18:45;;;;;;;7.40;5.47;;;29.40;1.00;;;;;;7386515;19;20014;-70
2023/06/18 11:21:19;;;;;;;6.97;5.00;;;29.50;1.00;;;;;;7383541;19;20010;-70
2023/06/18 11:23:50;;;;;;;6.15;5.07;;;29.50;1.00;;;;;;7386159;19;20014;-70
2023/06/18 11:26:21;;;;;;;5.30;4.80;;;29.70;1.00;;;;;;7385609;19;20054;-70
2023/06/18 11:28:54;;;;;;;5.22;4.57;;;29.60;1.00;;;;;;7386614;19;20013;-70
2023/06/18 11:31:31;;;;;;;5.22;4.60;;;29.80;1.00;;;;;;7387650;19;20015;-69
2023/06/18 11:34:07;;;;;;;6.50;4.18;;;29.70;1.00;;;;;;7389728;19;20121;-70
2023/06/18 11:36:42;;;;;;;5.28;4.78;;;29.80;1.00;;;;;;7385702;19;20872;-70
2023/06/18 11:39:12;;;;;;;5.28;4.78;;;29.60;1.00;;;;;;7385430;19;20014;-69
2023/06/18 11:41:42;;;;;;;5.35;4.60;;;29.70;1.00;;;;;;7385686;19;20328;-70
2023/06/18 11:44:14;;;;;;;6.13;4.82;;;29.90;1.00;;;;;;7383273;19;20019;-70
2023/06/18 11:46:44;;;;;;;4.63;4.18;;;30.00;1.00;;;;;;7385481;19;20367;-70
2023/06/18 11:49:15;;;;;;;5.93;5.10;;;30.30;1.00;;;;;;7385217;19;20018;-69
2023/06/18 11:51:45;;;;;;;5.53;4.68;;;30.10;1.00;;;;;;7385579;19;20486;-70
2023/06/18 11:54:15;;;;;;;4.57;4.18;;;29.90;1.00;;;;;;7384927;19;20022;-69
2023/06/18 11:56:46;;;;;;;5.65;4.80;;;29.60;1.00;;;;;;7385172;19;20019;-71
2023/06/18 11:59:19;;;;;;;5.82;4.63;;;29.30;1.00;;;;;;7385093;19;20018;-69
2023/06/18 12:01:49;;;;;;;7.85;4.65;;;29.40;1.00;;;;;;7384572;19;20793;-70
2023/06/18 12:04:18;;;;;;;6.35;5.10;;;29.80;1.00;;;;;;7384768;19;20018;-70
2023/06/18 12:06:49;;;;;;;5.80;4.72;;;29.70;1.00;;;;;;7384592;19;20487;-70
2023/06/18 12:09:19;;;;;;;4.95;4.45;;;29.90;1.00;;;;;;7386404;19;20029;-69
2023/06/18 12:11:58;;;;;;;6.45;5.10;;;30.20;1.00;;;;;;7384667;19;20074;-70
2023/06/18 12:14:36;;;;;;;5.47;4.50;;;30.20;1.00;;;;;;7385434;19;20014;-70
2023/06/18 12:17:13;;;;;;;5.55;4.90;;;30.40;1.00;;;;;;7386674;19;20038;-70
2023/06/18 12:19:46;;;;;;;5.35;4.80;;;30.30;1.00;;;;;;7383766;19;20018;-70
2023/06/18 12:22:16;;;;;;;6.50;4.55;;;30.20;1.00;;;;;;7383587;19;20015;-70
2023/06/18 12:24:46;;;;;;;6.10;4.18;;;30.30;1.00;;;;;;7383659;19;20018;-70
2023/06/18 12:27:16;;;;;;;6.88;4.70;;;30.10;1.00;;;;;;7385881;19;20018;-70
2023/06/18 12:29:50;;;;;;;5.35;4.68;;;30.30;1.00;;;;;;7387702;19;20021;-71
2023/06/18 12:32:20;;;;;;;4.95;4.45;;;30.30;1.00;;;;;;7383810;19;20017;-69
2023/06/18 12:34:50;;;;;;;5.75;5.13;;;29.70;1.00;;;;;;7383761;19;20499;-69
2023/06/18 12:37:20;;;;;;;5.60;4.32;;;29.60;1.00;;;;;;7382323;19;20018;-69
2023/06/18 12:40:14;;;;;;;4.80;4.32;;;29.70;1.00;;;;;;7383145;19;20082;-70
2023/06/18 12:42:44;;;;;;;5.20;4.10;;;29.90;1.00;;;;;;7382403;19;20011;-70
2023/06/18 12:45:17;;;;;;;6.72;4.88;;;30.30;1.00;;;;;;7383249;19;20374;-69
2023/06/18 12:47:48;;;;;;;4.78;4.28;;;30.50;1.00;;;;;;7383472;19;20452;-69
2023/06/18 12:50:22;;;;;;;5.15;4.65;;;30.30;1.00;;;;;;7382253;19;20018;-69
2023/06/18 12:52:53;;;;;;;4.93;4.03;;;30.30;1.00;;;;;;7383284;19;20019;-69
2023/06/18 12:55:23;;;;;;;4.70;4.20;;;29.90;1.00;;;;;;7383217;19;20018;-69
2023/06/18 12:57:54;;;;;;;4.70;4.20;;;30.40;1.00;;;;;;7383483;19;20029;-69
2023/06/18 13:00:27;;;;;;;5.03;4.03;;;30.40;1.00;;;;;;7380643;19;20039;-69
2023/06/18 13:02:57;;;;;;;3.72;3.42;;;30.50;1.00;;;;;;7381771;19;20035;-69
2023/06/18 13:05:27;;;;;;;5.05;4.32;;;30.40;1.00;;;;;;7382527;19;20018;-69
2023/06/18 13:07:58;;;;;;;5.75;4.32;;;30.40;1.00;;;;;;7383046;19;20074;-69
2023/06/18 13:10:28;;;;;;;4.35;3.95;;;29.80;1.00;;;;;;7381943;19;20074;-69
2023/06/18 13:12:58;;;;;;;5.28;3.92;;;29.80;1.00;;;;;;7382720;19;20018;-69
2023/06/18 13:15:30;;;;;;;6.38;4.28;;;30.30;1.00;;;;;;7384663;19;20018;-69